Time;durP1;ratioP1;P1;durP2;ratioP2;P2;SDS_P1;SDS_P2;PMS_P1;PMS_P2;Temp;Humidity;BMP_temperature;BMP_pressure;BME280_temperature;BME280_humidity;BME280_pressure;Samples;Min_cycle;Max_cycle;Signal;HPM_P1;HPM_P2
2022/08/12 00:44:11;;;;;;;0.63;0.57;;;25.10;43.00;;;;;;6323162;27;20159;-43
2022/08/12 00:47:14;;;;;;;0.50;0.50;;;25.10;43.00;;;;;;6326545;27;20042;-45
2022/08/12 00:50:29;;;;;;;0.82;0.70;;;25.30;43.20;;;;;;6307242;27;20035;-45
2022/08/12 00:53:31;;;;;;;0.65;0.57;;;25.20;43.20;;;;;;6324149;27;20119;-47
2022/08/12 00:56:33;;;;;;;0.60;0.60;;;25.10;43.20;;;;;;6321880;27;20049;-48
2022/08/12 00:59:35;;;;;;;0.43;0.40;;;25.30;43.40;;;;;;6323139;27;20862;-45
2022/08/12 01:02:39;;;;;;;0.70;0.63;;;25.00;43.20;;;;;;6290328;27;20940;-46
2022/08/12 01:12:17;;;;;;;0.80;0.65;;;25.00;43.30;;;;;;6315100;27;20050;-45
2022/08/12 01:15:19;;;;;;;0.95;0.73;;;25.10;43.50;;;;;;6319543;27;20034;-47
2022/08/12 01:18:23;;;;;;;0.90;0.70;;;24.90;43.50;;;;;;6318231;27;20943;-43
2022/08/12 01:21:56;;;;;;;0.52;0.52;;;25.00;43.60;;;;;;6298216;27;20114;-44
2022/08/12 01:25:03;;;;;;;0.57;0.50;;;25.00;43.70;;;;;;6298513;27;20170;-46
2022/08/12 01:28:09;;;;;;;0.82;0.60;;;25.00;43.70;;;;;;6320486;27;20924;-45
2022/08/12 01:31:11;;;;;;;0.65;0.60;;;25.00;43.70;;;;;;6322293;27;20043;-44
2022/08/12 01:34:22;;;;;;;0.60;0.40;;;25.00;43.70;;;;;;6328806;27;20082;-45
2022/08/12 01:37:46;;;;;;;0.93;0.63;;;25.10;43.80;;;;;;6320022;27;21067;-48
2022/08/12 01:40:51;;;;;;;0.60;0.60;;;24.80;43.70;;;;;;6299635;27;20159;-47
2022/08/12 01:43:59;;;;;;;0.50;0.40;;;24.90;43.70;;;;;;6300733;27;20045;-47
2022/08/12 01:47:12;;;;;;;0.50;0.50;;;24.80;43.70;;;;;;6320647;27;20042;-45
2022/08/12 01:50:26;;;;;;;0.57;0.43;;;24.90;43.80;;;;;;6311999;27;20462;-46
2022/08/12 01:53:39;;;;;;;0.95;0.52;;;24.90;43.80;;;;;;6307436;27;20311;-46
2022/08/12 01:57:02;;;;;;;0.75;0.52;;;24.80;43.80;;;;;;6281429;27;20586;-45
2022/08/12 02:00:06;;;;;;;0.77;0.70;;;24.90;43.90;;;;;;6304187;27;20137;-44
2022/08/12 02:03:21;;;;;;;0.60;0.60;;;24.70;44.40;;;;;;6299007;27;20957;-44
2022/08/12 02:13:20;;;;;;;0.80;0.68;;;24.90;43.80;;;;;;6287005;27;20867;-44
2022/08/12 02:16:53;;;;;;;0.70;0.60;;;24.80;43.80;;;;;;6274741;27;20217;-43
2022/08/12 02:20:05;;;;;;;0.47;0.40;;;24.80;43.80;;;;;;6302848;27;20258;-45
2022/08/12 02:23:09;;;;;;;0.70;0.50;;;24.80;43.80;;;;;;6302364;27;20585;-44
2022/08/12 02:26:14;;;;;;;0.40;0.35;;;24.80;43.80;;;;;;6287682;27;20494;-45
2022/08/12 02:29:18;;;;;;;0.60;0.60;;;24.80;43.80;;;;;;6305736;27;20104;-46
2022/08/12 02:32:21;;;;;;;0.60;0.60;;;24.90;43.80;;;;;;6312222;27;20040;-44
2022/08/12 02:35:28;;;;;;;0.55;0.55;;;24.80;43.80;;;;;;6325674;27;20057;-47
2022/08/12 02:38:30;;;;;;;0.73;0.70;;;24.90;43.80;;;;;;6313777;27;20723;-44
2022/08/12 02:41:35;;;;;;;0.50;0.50;;;24.80;43.70;;;;;;6322828;27;20042;-47
2022/08/12 02:44:42;;;;;;;0.60;0.50;;;24.80;43.70;;;;;;6302473;27;20081;-45
2022/08/12 02:47:47;;;;;;;0.60;0.50;;;24.70;43.70;;;;;;6322704;27;20161;-45
2022/08/12 02:51:05;;;;;;;0.52;0.50;;;24.90;43.80;;;;;;6322026;27;20046;-45
2022/08/12 02:54:07;;;;;;;0.55;0.40;;;24.80;43.70;;;;;;6294344;27;20153;-47
2022/08/12 02:57:09;;;;;;;0.50;0.50;;;24.70;43.70;;;;;;6294676;27;20631;-44
2022/08/12 03:00:14;;;;;;;0.40;0.40;;;24.80;43.70;;;;;;6296774;27;20116;-45
2022/08/12 03:03:20;;;;;;;0.40;0.40;;;24.70;43.70;;;;;;6319499;27;20522;-47
2022/08/12 03:06:26;;;;;;;0.50;0.50;;;24.70;43.80;;;;;;6315169;27;20502;-44
2022/08/12 03:09:31;;;;;;;1.30;0.60;;;24.80;43.70;;;;;;6303614;27;20063;-46
2022/08/12 03:12:57;;;;;;;0.45;0.40;;;24.70;43.70;;;;;;6290851;27;20278;-45
2022/08/12 03:15:59;;;;;;;0.93;0.57;;;24.80;43.80;;;;;;6320052;27;20982;-44
2022/08/12 03:19:02;;;;;;;0.65;0.60;;;24.80;43.80;;;;;;6321516;27;20043;-48
2022/08/12 03:22:13;;;;;;;0.40;0.40;;;24.70;43.70;;;;;;6324864;27;20454;-45
2022/08/12 03:25:20;;;;;;;0.50;0.40;;;24.70;43.70;;;;;;6303993;27;20266;-45
2022/08/12 03:31:39;;;;;;;0.55;0.50;;;24.80;43.70;;;;;;6322959;27;20146;-46
2022/08/12 03:34:42;;;;;;;0.50;0.50;;;24.70;43.70;;;;;;6321182;27;20154;-47
2022/08/12 03:37:44;;;;;;;0.55;0.55;;;24.80;43.70;;;;;;6320749;27;20027;-47
2022/08/12 04:00:40;;;;;;;0.63;0.55;;;24.80;43.80;;;;;;6324061;27;20955;-47
2022/08/12 04:07:00;;;;;;;1.30;0.50;;;24.70;43.70;;;;;;6310855;27;20922;-44
2022/08/12 04:10:03;;;;;;;0.55;0.52;;;24.80;43.80;;;;;;6309739;27;20507;-45
2022/08/12 04:16:20;;;;;;;0.60;0.60;;;24.60;43.70;;;;;;6324617;27;20075;-45
2022/08/12 04:19:24;;;;;;;0.50;0.50;;;24.70;43.80;;;;;;6321377;27;20145;-44
2022/08/12 04:22:29;;;;;;;0.68;0.60;;;24.70;43.70;;;;;;6325847;27;20047;-46
2022/08/12 04:25:31;;;;;;;0.50;0.50;;;24.70;43.70;;;;;;6304427;27;20109;-44
2022/08/12 04:28:33;;;;;;;0.50;0.47;;;24.70;43.70;;;;;;6316239;27;20035;-48
2022/08/12 04:31:38;;;;;;;0.80;0.60;;;24.70;43.70;;;;;;6297407;27;20086;-45
2022/08/12 04:34:43;;;;;;;1.50;0.60;;;24.80;43.70;;;;;;6299123;27;20046;-45
2022/08/12 04:37:45;;;;;;;0.63;0.60;;;24.70;44.30;;;;;;6318086;27;20124;-46
2022/08/12 04:41:02;;;;;;;0.77;0.68;;;24.70;43.70;;;;;;6315464;27;20054;-46
2022/08/12 04:44:05;;;;;;;0.77;0.60;;;24.60;43.60;;;;;;6296533;27;20145;-45
2022/08/12 04:47:10;;;;;;;0.60;0.60;;;24.80;43.70;;;;;;6318774;27;20050;-47
2022/08/12 04:50:14;;;;;;;0.93;0.50;;;24.70;43.60;;;;;;6320620;27;20053;-47
2022/08/12 04:53:36;;;;;;;0.47;0.47;;;24.70;43.60;;;;;;6274010;27;20054;-46
2022/08/12 04:56:39;;;;;;;0.50;0.50;;;24.80;43.60;;;;;;6318021;27;20115;-45
2022/08/12 04:59:43;;;;;;;0.70;0.60;;;24.80;43.60;;;;;;6319488;27;20187;-47
2022/08/12 05:02:50;;;;;;;0.60;0.60;;;24.80;43.60;;;;;;6324130;27;20217;-46
2022/08/12 05:05:55;;;;;;;0.50;0.50;;;24.80;43.50;;;;;;6315645;27;20040;-48
2022/08/12 05:08:59;;;;;;;0.60;0.50;;;24.90;43.60;;;;;;6301196;27;20838;-45
2022/08/12 05:12:02;;;;;;;0.60;0.60;;;24.70;43.40;;;;;;6278989;27;20170;-47
2022/08/12 05:15:05;;;;;;;0.90;0.60;;;24.60;43.40;;;;;;6312951;27;20103;-45
2022/08/12 05:18:26;;;;;;;0.70;0.60;;;24.70;43.40;;;;;;6299235;27;20047;-45
2022/08/12 05:21:32;;;;;;;0.60;0.60;;;24.80;43.40;;;;;;6296555;27;20768;-43
2022/08/12 05:24:33;;;;;;;0.77;0.63;;;24.90;43.50;;;;;;6316855;27;20916;-44
2022/08/12 05:27:35;;;;;;;0.55;0.52;;;24.80;43.40;;;;;;6316379;27;20042;-46
2022/08/12 05:30:36;;;;;;;0.50;0.50;;;24.70;43.40;;;;;;6297454;27;20051;-48
2022/08/12 05:33:44;;;;;;;1.00;0.60;;;24.90;43.50;;;;;;6315947;27;20039;-49
2022/08/12 05:36:46;;;;;;;0.60;0.47;;;24.70;43.40;;;;;;6311351;27;20066;-49
2022/08/12 05:39:48;;;;;;;0.50;0.50;;;24.80;43.40;;;;;;6297388;27;20047;-46
2022/08/12 05:42:50;;;;;;;1.10;0.60;;;24.90;43.40;;;;;;6289939;27;20050;-51
2022/08/12 05:45:51;;;;;;;0.65;0.60;;;24.80;43.40;;;;;;6314454;27;20043;-47
2022/08/12 05:48:54;;;;;;;0.68;0.50;;;24.80;43.40;;;;;;6300548;27;20149;-48
2022/08/12 05:51:56;;;;;;;0.60;0.60;;;24.90;43.40;;;;;;6314271;27;20046;-45
2022/08/12 05:54:58;;;;;;;0.65;0.57;;;24.90;43.40;;;;;;6309343;27;20078;-45
2022/08/12 05:58:00;;;;;;;0.60;0.52;;;24.90;43.40;;;;;;6310433;27;20043;-47
2022/08/12 06:01:01;;;;;;;0.80;0.70;;;24.80;43.40;;;;;;6293496;27;20059;-45
2022/08/12 06:04:23;;;;;;;;;;;24.80;43.40;;;;;;6295490;27;20043;-45
2022/08/12 06:07:25;;;;;;;;;;;24.90;43.40;;;;;;6300855;27;20862;-48
2022/08/12 06:10:48;;;;;;;0.80;0.60;;;24.70;43.20;;;;;;6291486;27;19926;-51
2022/08/12 06:13:51;;;;;;;0.98;0.50;;;24.90;43.30;;;;;;6313613;27;20930;-45
2022/08/12 06:16:56;;;;;;;0.60;0.60;;;24.80;43.30;;;;;;6293179;27;20043;-45
2022/08/12 06:19:57;;;;;;;1.27;0.90;;;24.80;43.40;;;;;;6315820;27;20035;-46
2022/08/12 06:23:19;;;;;;;;;;;24.80;43.30;;;;;;6297945;27;20107;-45
2022/08/12 06:26:21;;;;;;;0.70;0.55;;;24.90;43.40;;;;;;6310061;27;19926;-45
2022/08/12 06:29:22;;;;;;;1.38;0.60;;;24.80;43.30;;;;;;6308569;27;21016;-49
2022/08/12 06:32:44;;;;;;;;;;;24.90;43.30;;;;;;6269527;27;20038;-45
2022/08/12 06:36:06;;;;;;;1.05;0.60;;;24.90;43.30;;;;;;6274977;27;20827;-46
2022/08/12 06:39:11;;;;;;;0.80;0.60;;;24.80;43.30;;;;;;6299941;27;20070;-45
2022/08/12 06:45:43;;;;;;;1.33;0.80;;;24.90;43.30;;;;;;6300055;27;20047;-48
2022/08/12 06:48:49;;;;;;;0.93;0.60;;;24.90;43.40;;;;;;6298708;27;20039;-45
2022/08/12 06:51:53;;;;;;;1.33;0.85;;;24.90;43.30;;;;;;6276748;27;20046;-47
2022/08/12 06:54:59;;;;;;;0.70;0.60;;;25.00;43.40;;;;;;6286240;27;21530;-46
2022/08/12 06:58:01;;;;;;;0.75;0.63;;;24.90;43.30;;;;;;6285158;27;20054;-47
2022/08/12 07:01:11;;;;;;;1.13;0.77;;;25.00;43.40;;;;;;6279623;27;20039;-50
2022/08/12 07:04:14;;;;;;;0.70;0.60;;;25.00;43.40;;;;;;6279079;27;21042;-49
2022/08/12 07:07:37;;;;;;;1.70;0.90;;;25.00;43.40;;;;;;6252286;27;20030;-44
2022/08/12 07:10:42;;;;;;;1.88;0.82;;;24.90;43.40;;;;;;6269900;27;21148;-44
2022/08/12 07:13:49;;;;;;;0.70;0.70;;;25.10;43.50;;;;;;6241248;27;20051;-44
2022/08/12 07:17:11;;;;;;;1.42;0.80;;;25.00;43.40;;;;;;6265087;27;20054;-42
2022/08/12 07:20:13;;;;;;;1.75;0.65;;;25.10;43.50;;;;;;6283972;27;21773;-44
2022/08/12 07:23:35;;;;;;;0.80;0.80;;;25.10;43.60;;;;;;6254726;27;20051;-44
2022/08/12 07:26:40;;;;;;;1.20;0.70;;;25.10;43.50;;;;;;6253599;27;20158;-44
2022/08/12 07:29:46;;;;;;;0.70;0.70;;;25.00;43.50;;;;;;6280762;27;21359;-46
2022/08/12 07:33:08;;;;;;;1.23;0.80;;;25.00;43.40;;;;;;6282816;27;20968;-44
2022/08/12 07:36:13;;;;;;;0.70;0.70;;;25.10;43.40;;;;;;6271568;27;20149;-49
2022/08/12 07:39:15;;;;;;;1.00;0.60;;;25.10;43.40;;;;;;6248315;27;20046;-44
2022/08/12 07:42:17;;;;;;;0.60;0.57;;;25.10;43.40;;;;;;6294318;27;20104;-43
2022/08/12 07:45:19;;;;;;;0.90;0.70;;;25.10;43.30;;;;;;6283993;27;20054;-44
2022/08/12 07:48:23;;;;;;;0.80;0.60;;;25.10;43.30;;;;;;6286408;27;20239;-43
2022/08/12 07:51:27;;;;;;;0.98;0.43;;;25.10;43.30;;;;;;6271658;27;20051;-43
2022/08/12 07:54:32;;;;;;;0.80;0.57;;;25.20;43.30;;;;;;6264671;27;20159;-43
2022/08/12 07:57:47;;;;;;;0.45;0.40;;;25.10;43.20;;;;;;6284257;27;20039;-44
2022/08/12 08:00:48;;;;;;;0.70;0.60;;;25.20;43.20;;;;;;6281072;27;20224;-45
2022/08/12 08:07:09;;;;;;;0.45;0.45;;;25.20;43.20;;;;;;6270319;27;20051;-45
2022/08/12 08:10:12;;;;;;;0.82;0.70;;;25.10;43.70;;;;;;6280795;27;20039;-45
2022/08/12 08:13:15;;;;;;;1.52;0.90;;;25.10;43.10;;;;;;6261500;27;20051;-44
2022/08/12 08:16:16;;;;;;;0.50;0.50;;;25.30;43.20;;;;;;6279921;27;20058;-43
2022/08/12 08:19:19;;;;;;;1.00;0.75;;;25.10;43.00;;;;;;6277925;27;20153;-43
2022/08/12 08:22:21;;;;;;;0.85;0.80;;;25.10;42.90;;;;;;6268135;27;20038;-43
2022/08/12 08:25:43;;;;;;;0.80;0.70;;;25.20;43.00;;;;;;6277516;27;20073;-46
2022/08/12 08:28:47;;;;;;;0.90;0.70;;;25.10;42.90;;;;;;6271780;27;20043;-43
2022/08/12 08:31:52;;;;;;;0.95;0.50;;;25.30;43.00;;;;;;6249493;27;20050;-42
2022/08/12 08:34:54;;;;;;;0.80;0.80;;;25.30;43.00;;;;;;6266300;27;20239;-43
2022/08/12 08:38:06;;;;;;;1.10;0.80;;;25.30;43.00;;;;;;6273762;27;21137;-44
2022/08/12 08:44:48;;;;;;;0.82;0.70;;;25.30;42.80;;;;;;6270208;27;20046;-42
2022/08/12 08:47:59;;;;;;;1.60;0.85;;;25.30;42.70;;;;;;6283025;27;20050;-48
2022/08/12 08:51:04;;;;;;;0.77;0.70;;;25.40;42.70;;;;;;6274554;27;20042;-45
2022/08/12 08:54:07;;;;;;;1.20;0.73;;;25.30;42.50;;;;;;6282667;27;20111;-43
2022/08/12 08:57:09;;;;;;;1.02;0.90;;;25.30;42.50;;;;;;6290208;27;20047;-43
2022/08/12 09:00:13;;;;;;;2.22;0.82;;;25.50;42.40;;;;;;6297304;27;20136;-43
2022/08/12 09:03:17;;;;;;;0.98;0.73;;;25.30;42.20;;;;;;6291128;27;20081;-42
2022/08/12 09:06:40;;;;;;;0.70;0.60;;;25.30;42.00;;;;;;6267136;27;20046;-44
2022/08/12 09:10:02;;;;;;;1.10;0.75;;;25.40;42.00;;;;;;6259605;27;20031;-43
2022/08/12 09:16:25;;;;;;;1.67;0.60;;;25.40;41.70;;;;;;6294202;27;20920;-43
2022/08/12 09:19:28;;;;;;;0.90;0.60;;;25.30;41.50;;;;;;6291193;27;20075;-39
2022/08/12 09:22:30;;;;;;;0.60;0.60;;;25.50;41.40;;;;;;6289157;27;20056;-41
2022/08/12 09:25:37;;;;;;;0.75;0.60;;;25.50;41.30;;;;;;6280208;27;20075;-41
2022/08/12 09:28:46;;;;;;;0.77;0.60;;;25.40;41.10;;;;;;6280707;27;20073;-44
2022/08/12 09:31:51;;;;;;;0.70;0.70;;;25.40;41.00;;;;;;6280666;27;20998;-42
2022/08/12 09:35:10;;;;;;;0.85;0.70;;;25.50;41.00;;;;;;6282710;27;20906;-40
2022/08/12 09:38:23;;;;;;;0.60;0.50;;;25.50;40.80;;;;;;6279800;27;20066;-39
2022/08/12 09:41:37;;;;;;;0.57;0.57;;;25.50;40.70;;;;;;6281288;27;20042;-40
2022/08/12 09:48:25;;;;;;;0.80;0.60;;;25.50;40.40;;;;;;6280919;27;20054;-42
2022/08/12 09:51:36;;;;;;;0.80;0.60;;;25.40;40.20;;;;;;6285908;27;20074;-42
2022/08/12 09:54:44;;;;;;;1.20;0.65;;;25.50;40.20;;;;;;6282989;27;20181;-42
2022/08/12 09:57:50;;;;;;;0.80;0.60;;;25.50;40.00;;;;;;6277954;27;20165;-41
2022/08/12 10:01:12;;;;;;;1.65;0.65;;;25.40;39.70;;;;;;6262071;27;20042;-41
2022/08/12 10:04:24;;;;;;;0.88;0.60;;;25.50;39.80;;;;;;6251189;27;20050;-42
2022/08/12 10:07:29;;;;;;;1.45;0.47;;;25.50;39.60;;;;;;6253059;27;20035;-41
2022/08/12 10:14:01;;;;;;;0.60;0.40;;;25.50;39.30;;;;;;6272012;27;20165;-41
2022/08/12 10:17:03;;;;;;;1.23;0.60;;;25.50;39.20;;;;;;6275890;27;20119;-42
2022/08/12 10:20:11;;;;;;;0.80;0.70;;;25.50;39.10;;;;;;6273441;27;20069;-41
2022/08/12 10:23:13;;;;;;;1.05;0.70;;;25.50;39.00;;;;;;6277398;27;20165;-40
2022/08/12 10:29:41;;;;;;;0.70;0.70;;;25.50;38.70;;;;;;6280308;27;20969;-42
2022/08/12 10:33:03;;;;;;;0.70;0.50;;;25.50;38.70;;;;;;6271997;27;20047;-42
2022/08/12 10:36:23;;;;;;;0.80;0.50;;;25.40;38.50;;;;;;6292112;27;20157;-43
2022/08/12 10:39:42;;;;;;;0.75;0.60;;;25.50;38.50;;;;;;6290033;27;20046;-41
2022/08/12 10:46:20;;;;;;;0.50;0.50;;;25.50;38.40;;;;;;6298429;27;20050;-42
2022/08/12 10:49:26;;;;;;;1.00;0.60;;;25.50;38.20;;;;;;6292707;27;20993;-40
2022/08/12 10:52:48;;;;;;;0.70;0.63;;;25.50;38.10;;;;;;6260409;27;20107;-43
2022/08/12 10:55:53;;;;;;;0.50;0.50;;;25.50;38.00;;;;;;6306733;27;21639;-42
2022/08/12 10:58:57;;;;;;;0.45;0.43;;;25.40;37.90;;;;;;6302172;27;20047;-42
2022/08/12 11:02:00;;;;;;;0.50;0.40;;;25.60;37.90;;;;;;6295739;27;20084;-42
2022/08/12 11:05:22;;;;;;;0.70;0.60;;;25.50;37.80;;;;;;6288300;27;20057;-43
2022/08/12 11:08:44;;;;;;;0.55;0.52;;;25.50;37.80;;;;;;6293879;27;20081;-41
2022/08/12 11:11:48;;;;;;;0.52;0.50;;;25.60;38.20;;;;;;6304541;27;20054;-42
2022/08/12 11:15:09;;;;;;;0.90;0.50;;;25.50;37.50;;;;;;6280335;27;20075;-42
2022/08/12 11:18:22;;;;;;;0.75;0.60;;;25.50;37.40;;;;;;6311973;27;20039;-40
2022/08/12 11:21:23;;;;;;;0.90;0.57;;;25.50;37.30;;;;;;6311600;27;20843;-40
2022/08/12 11:24:46;;;;;;;;;;;25.60;37.40;;;;;;6287498;27;20050;-41
2022/08/12 11:27:55;;;;;;;0.93;0.65;;;25.60;37.50;;;;;;6302735;27;19927;-40
2022/08/12 11:30:56;;;;;;;0.68;0.55;;;25.50;37.30;;;;;;6284743;27;20135;-42
2022/08/12 11:33:58;;;;;;;0.63;0.50;;;25.60;37.20;;;;;;6305012;27;20153;-41
2022/08/12 11:37:19;;;;;;;;;;;25.60;37.20;;;;;;6288098;27;20915;-43
2022/08/12 11:40:29;;;;;;;1.60;0.50;;;25.60;37.20;;;;;;6299516;27;19934;-41
2022/08/12 11:43:31;;;;;;;0.50;0.50;;;25.60;37.30;;;;;;6268830;27;20061;-42
2022/08/12 11:46:53;;;;;;;;;;;25.60;37.10;;;;;;6289516;27;20046;-42
2022/08/12 11:49:55;;;;;;;2.38;0.50;;;25.70;37.20;;;;;;6266642;27;19931;-45
2022/08/12 11:52:56;;;;;;;1.20;0.45;;;25.80;37.20;;;;;;6283351;27;22108;-46
2022/08/12 11:56:02;;;;;;;2.85;0.57;;;25.50;37.10;;;;;;6292035;27;20035;-47
2022/08/12 11:59:03;;;;;;;0.60;0.50;;;25.50;37.10;;;;;;6281522;27;20077;-44
2022/08/12 12:02:25;;;;;;;0.80;0.55;;;25.70;37.30;;;;;;6257922;27;20050;-42
2022/08/12 12:05:27;;;;;;;0.40;0.40;;;25.70;37.30;;;;;;6277680;27;20368;-41
2022/08/12 12:08:40;;;;;;;0.60;0.45;;;25.80;37.40;;;;;;6286186;27;20045;-41
2022/08/12 12:11:48;;;;;;;0.82;0.70;;;25.80;37.30;;;;;;6286478;27;20045;-40
2022/08/12 12:14:52;;;;;;;0.70;0.70;;;25.80;37.50;;;;;;6283257;27;20042;-43
2022/08/12 12:17:57;;;;;;;0.68;0.68;;;25.80;37.10;;;;;;6286329;27;20042;-43
2022/08/12 12:21:01;;;;;;;4.68;0.55;;;25.80;37.00;;;;;;6285159;27;20162;-39
2022/08/12 12:24:05;;;;;;;0.45;0.45;;;25.90;37.00;;;;;;6283056;27;20060;-42
2022/08/12 12:27:07;;;;;;;0.82;0.45;;;25.90;37.00;;;;;;6295135;27;20185;-44
2022/08/12 12:30:11;;;;;;;0.90;0.45;;;26.00;37.00;;;;;;6297211;27;21147;-43
2022/08/12 12:33:26;;;;;;;0.40;0.40;;;25.90;36.80;;;;;;6261453;27;20097;-41
2022/08/12 12:36:48;;;;;;;0.50;0.45;;;25.90;36.80;;;;;;6273358;27;20049;-41
2022/08/12 12:39:57;;;;;;;0.57;0.50;;;26.00;36.80;;;;;;6291293;27;21060;-43
2022/08/12 12:43:00;;;;;;;2.05;0.52;;;26.10;36.70;;;;;;6284742;27;21504;-40
2022/08/12 12:46:06;;;;;;;0.60;0.60;;;26.00;36.50;;;;;;6296149;27;20834;-41
2022/08/12 12:49:10;;;;;;;0.60;0.60;;;25.90;36.20;;;;;;6261844;27;20046;-41
2022/08/12 12:52:17;;;;;;;0.60;0.60;;;26.00;36.10;;;;;;6287998;27;20043;-41
2022/08/12 12:55:23;;;;;;;0.80;0.52;;;26.00;36.00;;;;;;6267453;27;20976;-44
2022/08/12 12:58:34;;;;;;;0.35;0.32;;;26.00;36.00;;;;;;6247456;27;20043;-51
2022/08/12 13:01:37;;;;;;;0.65;0.57;;;26.00;36.00;;;;;;6272652;27;20041;-51
2022/08/12 13:04:43;;;;;;;0.70;0.50;;;25.90;35.90;;;;;;6285334;27;20119;-51
2022/08/12 13:07:49;;;;;;;1.90;0.60;;;26.10;36.10;;;;;;6280499;27;20042;-40
2022/08/12 13:11:04;;;;;;;0.88;0.55;;;26.10;36.00;;;;;;6269557;27;20042;-44
2022/08/12 13:14:07;;;;;;;0.50;0.50;;;26.10;35.90;;;;;;6259108;27;21137;-40
2022/08/12 13:17:20;;;;;;;0.60;0.60;;;26.10;36.00;;;;;;6287541;27;20047;-44
2022/08/12 13:20:23;;;;;;;0.70;0.60;;;26.00;35.80;;;;;;6287519;27;20109;-41
2022/08/12 13:23:45;;;;;;;0.40;0.40;;;26.10;35.90;;;;;;6292611;27;20115;-38
2022/08/12 13:26:49;;;;;;;0.52;0.47;;;26.10;36.10;;;;;;6257367;27;20101;-41
2022/08/12 13:29:53;;;;;;;1.38;0.52;;;26.00;36.00;;;;;;6277872;27;20039;-40
2022/08/12 13:32:57;;;;;;;0.63;0.60;;;26.20;36.10;;;;;;6265590;27;20039;-41
2022/08/12 13:36:03;;;;;;;1.23;0.70;;;26.30;36.20;;;;;;6268431;27;20275;-41
2022/08/12 13:39:11;;;;;;;0.60;0.50;;;26.20;36.00;;;;;;6273638;27;20051;-42
2022/08/12 13:42:13;;;;;;;0.63;0.60;;;26.30;36.00;;;;;;6252442;27;20128;-38
2022/08/12 13:45:16;;;;;;;0.60;0.60;;;26.30;36.00;;;;;;6297998;27;20051;-39
2022/08/12 13:48:18;;;;;;;0.70;0.60;;;26.30;36.00;;;;;;6284210;27;20077;-42
2022/08/12 13:51:21;;;;;;;0.90;0.40;;;26.30;36.00;;;;;;6289185;27;20218;-40
2022/08/12 13:54:28;;;;;;;0.47;0.47;;;26.30;36.00;;;;;;6285815;27;20158;-41
2022/08/12 13:57:42;;;;;;;0.38;0.30;;;26.30;36.00;;;;;;6291596;27;20092;-43
2022/08/12 14:00:50;;;;;;;0.82;0.50;;;26.40;35.90;;;;;;6293948;27;20043;-39
2022/08/12 14:03:52;;;;;;;0.60;0.60;;;26.40;35.90;;;;;;6273664;27;20039;-40
2022/08/12 14:07:01;;;;;;;1.58;0.60;;;26.40;35.90;;;;;;6286376;27;20042;-39
2022/08/12 14:13:22;;;;;;;0.70;0.70;;;26.40;35.80;;;;;;6293272;27;20162;-41
2022/08/12 14:16:45;;;;;;;0.60;0.60;;;26.50;36.30;;;;;;6261250;27;20043;-42
2022/08/12 14:23:13;;;;;;;3.55;0.70;;;26.50;35.70;;;;;;6283982;27;20043;-42
2022/08/12 14:26:35;;;;;;;0.47;0.45;;;26.40;35.60;;;;;;6252747;27;20047;-40
2022/08/12 14:29:43;;;;;;;0.50;0.45;;;26.30;35.40;;;;;;6277572;27;21653;-40
2022/08/12 14:33:09;;;;;;;0.60;0.50;;;26.40;35.40;;;;;;6256846;27;20038;-41
2022/08/12 14:36:13;;;;;;;0.70;0.57;;;26.50;35.30;;;;;;6282112;27;20053;-42
2022/08/12 14:39:16;;;;;;;0.50;0.50;;;26.50;35.30;;;;;;6268273;27;20085;-44
2022/08/12 14:42:17;;;;;;;0.50;0.50;;;26.50;35.20;;;;;;6286468;27;20873;-40
2022/08/12 14:45:23;;;;;;;0.68;0.50;;;26.50;35.00;;;;;;6284859;27;20142;-42
2022/08/12 14:48:25;;;;;;;0.50;0.50;;;26.50;35.00;;;;;;6282307;27;20147;-43
2022/08/12 14:51:29;;;;;;;2.13;0.60;;;26.50;34.90;;;;;;6285388;27;20070;-45
2022/08/12 14:54:50;;;;;;;0.63;0.50;;;26.50;34.90;;;;;;6274638;27;21807;-43
2022/08/12 14:58:12;;;;;;;0.82;0.60;;;26.50;34.90;;;;;;6269871;27;20043;-44
2022/08/12 15:04:32;;;;;;;1.40;0.60;;;26.50;34.60;;;;;;6270057;27;21203;-45
2022/08/12 15:07:36;;;;;;;1.20;0.55;;;26.50;34.60;;;;;;6288190;27;20047;-44
2022/08/12 15:10:55;;;;;;;1.30;0.50;;;26.50;34.50;;;;;;6297250;27;20035;-44
2022/08/12 15:13:58;;;;;;;0.40;0.40;;;26.40;34.30;;;;;;6263464;27;20046;-43
2022/08/12 15:17:01;;;;;;;0.65;0.65;;;26.50;34.30;;;;;;6296927;27;21172;-46
2022/08/12 15:20:04;;;;;;;0.52;0.50;;;26.40;34.10;;;;;;6302055;27;20925;-42
2022/08/12 15:23:29;;;;;;;1.67;0.63;;;26.40;34.00;;;;;;6263613;27;20783;-44
2022/08/12 15:26:38;;;;;;;0.40;0.40;;;26.40;33.90;;;;;;6257705;27;20047;-40
2022/08/12 15:29:42;;;;;;;0.85;0.60;;;26.50;33.90;;;;;;6249452;27;20734;-42
2022/08/12 15:32:45;;;;;;;0.50;0.50;;;26.40;33.80;;;;;;6251103;27;20603;-45
2022/08/12 15:35:51;;;;;;;0.47;0.40;;;26.50;33.80;;;;;;6273900;27;20085;-42
2022/08/12 15:38:56;;;;;;;0.57;0.50;;;26.50;33.80;;;;;;6272739;27;20632;-42
2022/08/12 15:41:58;;;;;;;0.60;0.45;;;26.50;33.70;;;;;;6280387;27;20391;-41
2022/08/12 15:45:04;;;;;;;0.55;0.45;;;26.50;33.60;;;;;;6274299;27;20065;-43
2022/08/12 15:48:11;;;;;;;0.47;0.47;;;26.50;33.50;;;;;;6273834;27;20047;-47
2022/08/12 15:51:29;;;;;;;0.40;0.40;;;26.40;33.50;;;;;;6261725;27;20494;-42
2022/08/12 15:54:50;;;;;;;0.40;0.40;;;26.50;33.40;;;;;;6258969;27;21434;-41
2022/08/12 15:57:54;;;;;;;0.70;0.65;;;26.40;33.40;;;;;;6282611;27;20630;-41
2022/08/12 16:00:56;;;;;;;0.47;0.38;;;26.50;33.40;;;;;;6260399;27;20803;-43
2022/08/12 16:03:58;;;;;;;0.60;0.60;;;26.40;33.30;;;;;;6277971;27;20535;-42
2022/08/12 16:07:02;;;;;;;0.75;0.50;;;26.40;33.30;;;;;;6275162;27;20250;-42
2022/08/12 16:10:10;;;;;;;0.40;0.40;;;26.50;33.30;;;;;;6288564;27;20038;-45
2022/08/12 16:13:13;;;;;;;0.70;0.57;;;26.50;33.20;;;;;;6303242;27;20849;-42
2022/08/12 16:16:17;;;;;;;0.57;0.50;;;26.50;33.20;;;;;;6292204;27;20051;-40
2022/08/12 16:19:26;;;;;;;0.60;0.52;;;26.50;33.30;;;;;;6301187;27;20039;-41
2022/08/12 16:22:49;;;;;;;0.68;0.68;;;26.50;33.20;;;;;;6276320;27;20086;-43
2022/08/12 16:25:51;;;;;;;0.60;0.50;;;26.50;33.10;;;;;;6287609;27;20185;-41
2022/08/12 16:29:13;;;;;;;0.50;0.50;;;26.50;33.10;;;;;;6289890;27;20111;-44
2022/08/12 16:32:18;;;;;;;0.57;0.50;;;26.50;33.00;;;;;;6305095;27;20049;-42
2022/08/12 16:35:20;;;;;;;0.45;0.40;;;26.50;32.90;;;;;;6299822;27;21938;-46
2022/08/12 16:38:32;;;;;;;0.60;0.40;;;26.50;32.90;;;;;;6305620;27;20039;-42
2022/08/12 16:41:34;;;;;;;0.57;0.47;;;26.60;33.00;;;;;;6309473;27;20874;-45
2022/08/12 16:44:41;;;;;;;0.50;0.50;;;26.50;33.00;;;;;;6307784;27;20043;-42
2022/08/12 16:47:52;;;;;;;0.60;0.50;;;26.60;33.00;;;;;;6306393;27;20038;-42
2022/08/12 16:51:02;;;;;;;0.50;0.50;;;26.50;33.00;;;;;;6311676;27;20031;-42
2022/08/12 16:54:07;;;;;;;0.60;0.50;;;26.50;33.00;;;;;;6289531;27;21028;-41
2022/08/12 16:57:15;;;;;;;0.45;0.40;;;26.60;33.00;;;;;;6307933;27;20047;-41
2022/08/12 17:00:18;;;;;;;0.60;0.50;;;26.50;33.00;;;;;;6307119;27;20318;-46
2022/08/12 17:03:19;;;;;;;0.40;0.40;;;26.50;33.10;;;;;;6308460;27;20046;-40
2022/08/12 17:06:31;;;;;;;0.60;0.50;;;26.50;33.00;;;;;;6303894;27;20052;-43
2022/08/12 17:09:35;;;;;;;0.45;0.40;;;26.60;32.90;;;;;;6301409;27;20043;-45
2022/08/12 17:12:42;;;;;;;0.77;0.57;;;26.40;32.60;;;;;;6308176;27;20043;-45
2022/08/12 17:15:45;;;;;;;0.65;0.60;;;26.50;33.00;;;;;;6295482;27;21126;-42
2022/08/12 17:19:07;;;;;;;0.70;0.60;;;26.60;33.60;;;;;;6297713;27;20039;-41
2022/08/12 17:22:11;;;;;;;0.70;0.60;;;26.50;34.10;;;;;;6311286;27;20652;-42
2022/08/12 17:25:14;;;;;;;0.50;0.47;;;26.50;34.70;;;;;;6313459;27;20199;-41
2022/08/12 17:28:17;;;;;;;0.85;0.75;;;26.60;35.40;;;;;;6311518;27;20161;-42
2022/08/12 17:31:19;;;;;;;0.70;0.70;;;26.50;35.70;;;;;;6312980;27;20039;-42
2022/08/12 17:38:02;;;;;;;0.60;0.60;;;26.60;36.50;;;;;;6309940;27;20035;-43
2022/08/12 17:41:06;;;;;;;1.17;0.60;;;26.50;36.90;;;;;;6275820;27;20046;-41
2022/08/12 17:44:24;;;;;;;0.50;0.40;;;26.60;37.10;;;;;;6314281;27;20047;-43
2022/08/12 17:47:27;;;;;;;0.52;0.52;;;26.70;37.40;;;;;;6314192;27;20050;-42
2022/08/12 17:50:38;;;;;;;1.00;0.60;;;26.70;37.60;;;;;;6292135;27;20208;-46
2022/08/12 17:53:43;;;;;;;0.88;0.60;;;26.60;37.70;;;;;;6310676;27;20373;-40
2022/08/12 17:57:07;;;;;;;0.90;0.75;;;26.70;38.00;;;;;;6290023;27;20066;-40
2022/08/12 18:00:17;;;;;;;1.00;0.68;;;26.70;38.10;;;;;;6296921;27;20157;-43
2022/08/12 18:03:20;;;;;;;0.63;0.50;;;26.70;38.30;;;;;;6314510;27;20051;-45
2022/08/12 18:06:45;;;;;;;0.50;0.50;;;26.70;38.50;;;;;;6300251;27;20046;-42
2022/08/12 18:09:53;;;;;;;0.50;0.50;;;26.70;38.80;;;;;;6311726;27;20322;-43
2022/08/12 18:12:59;;;;;;;1.17;0.65;;;26.70;39.10;;;;;;6316135;27;20071;-43
2022/08/12 18:16:04;;;;;;;0.70;0.70;;;26.80;39.40;;;;;;6311918;27;20047;-42
2022/08/12 18:19:09;;;;;;;0.68;0.60;;;26.80;39.70;;;;;;6313392;27;20248;-41
2022/08/12 18:22:11;;;;;;;0.80;0.70;;;26.70;39.90;;;;;;6297730;27;20043;-44
2022/08/12 18:26:20;;;;;;;0.70;0.57;;;26.70;40.10;;;;;;6315732;27;20166;-42